sensor_id;sensor_type;location;lat;lon;timestamp;temperature;humidity
70830;SHT30;58451;51.550;7.208;2023-08-21T00:01:14;18.41;74.98
70830;SHT30;58451;51.550;7.208;2023-08-21T00:02:46;18.40;75.00
70830;SHT30;58451;51.550;7.208;2023-08-21T00:04:18;18.39;74.97
70830;SHT30;58451;51.550;7.208;2023-08-21T00:05:50;18.39;74.98
70830;SHT30;58451;51.550;7.208;2023-08-21T00:07:22;18.37;74.98
70830;SHT30;58451;51.550;7.208;2023-08-21T00:08:54;18.37;75.02
70830;SHT30;58451;51.550;7.208;2023-08-21T00:10:26;18.35;75.07
70830;SHT30;58451;51.550;7.208;2023-08-21T00:11:58;18.35;75.10
70830;SHT30;58451;51.550;7.208;2023-08-21T00:13:30;18.34;75.17
70830;SHT30;58451;51.550;7.208;2023-08-21T00:15:02;18.33;75.18
70830;SHT30;58451;51.550;7.208;2023-08-21T00:16:35;18.32;75.25
70830;SHT30;58451;51.550;7.208;2023-08-21T00:18:07;18.33;75.20
70830;SHT30;58451;51.550;7.208;2023-08-21T00:19:39;18.32;75.28
70830;SHT30;58451;51.550;7.208;2023-08-21T00:21:11;18.30;75.32
70830;SHT30;58451;51.550;7.208;2023-08-21T00:22:43;18.30;75.35
70830;SHT30;58451;51.550;7.208;2023-08-21T00:24:15;18.30;75.38
70830;SHT30;58451;51.550;7.208;2023-08-21T00:25:47;18.31;75.37
70830;SHT30;58451;51.550;7.208;2023-08-21T00:27:19;18.30;75.32
70830;SHT30;58451;51.550;7.208;2023-08-21T00:28:51;18.31;75.33
70830;SHT30;58451;51.550;7.208;2023-08-21T00:30:23;18.31;75.32
70830;SHT30;58451;51.550;7.208;2023-08-21T00:31:55;18.29;75.30
70830;SHT30;58451;51.550;7.208;2023-08-21T00:33:27;18.28;75.30
70830;SHT30;58451;51.550;7.208;2023-08-21T00:34:58;18.28;75.30
70830;SHT30;58451;51.550;7.208;2023-08-21T00:36:30;18.28;75.25
70830;SHT30;58451;51.550;7.208;2023-08-21T00:38:02;18.28;75.23
70830;SHT30;58451;51.550;7.208;2023-08-21T00:39:34;18.27;75.25
70830;SHT30;58451;51.550;7.208;2023-08-21T00:41:06;18.26;75.25
70830;SHT30;58451;51.550;7.208;2023-08-21T00:42:38;18.25;75.27
70830;SHT30;58451;51.550;7.208;2023-08-21T00:44:11;18.23;75.32
70830;SHT30;58451;51.550;7.208;2023-08-21T00:45:43;18.24;75.38
70830;SHT30;58451;51.550;7.208;2023-08-21T00:47:17;18.23;75.43
70830;SHT30;58451;51.550;7.208;2023-08-21T00:48:51;18.22;75.47
70830;SHT30;58451;51.550;7.208;2023-08-21T00:50:24;18.22;75.48
70830;SHT30;58451;51.550;7.208;2023-08-21T00:51:56;18.21;75.58
70830;SHT30;58451;51.550;7.208;2023-08-21T00:53:28;18.22;75.62
70830;SHT30;58451;51.550;7.208;2023-08-21T00:55:00;18.19;75.63
70830;SHT30;58451;51.550;7.208;2023-08-21T00:56:39;18.17;75.63
70830;SHT30;58451;51.550;7.208;2023-08-21T00:58:11;18.15;75.68
70830;SHT30;58451;51.550;7.208;2023-08-21T00:59:44;18.13;75.73
70830;SHT30;58451;51.550;7.208;2023-08-21T01:01:16;18.12;75.78
70830;SHT30;58451;51.550;7.208;2023-08-21T01:02:54;18.08;75.80
70830;SHT30;58451;51.550;7.208;2023-08-21T01:04:38;18.07;75.82
70830;SHT30;58451;51.550;7.208;2023-08-21T01:06:10;18.04;75.97
70830;SHT30;58451;51.550;7.208;2023-08-21T01:07:48;18.04;75.98
70830;SHT30;58451;51.550;7.208;2023-08-21T01:15:11;18.04;75.98
70830;SHT30;58451;51.550;7.208;2023-08-21T01:16:46;18.04;76.00
70830;SHT30;58451;51.550;7.208;2023-08-21T01:18:24;18.05;75.98
70830;SHT30;58451;51.550;7.208;2023-08-21T01:19:59;18.06;76.02
70830;SHT30;58451;51.550;7.208;2023-08-21T01:21:32;18.07;76.03
70830;SHT30;58451;51.550;7.208;2023-08-21T01:23:04;18.08;76.08
70830;SHT30;58451;51.550;7.208;2023-08-21T01:24:40;18.10;76.05
70830;SHT30;58451;51.550;7.208;2023-08-21T01:26:12;18.10;76.07
70830;SHT30;58451;51.550;7.208;2023-08-21T01:27:47;18.10;76.08
70830;SHT30;58451;51.550;7.208;2023-08-21T01:29:21;18.10;76.07
70830;SHT30;58451;51.550;7.208;2023-08-21T01:31:14;18.10;76.08
70830;SHT30;58451;51.550;7.208;2023-08-21T01:34:42;18.10;75.98
70830;SHT30;58451;51.550;7.208;2023-08-21T01:36:17;18.09;75.97
70830;SHT30;58451;51.550;7.208;2023-08-21T01:37:50;18.08;75.97
70830;SHT30;58451;51.550;7.208;2023-08-21T01:39:24;18.09;75.95
70830;SHT30;58451;51.550;7.208;2023-08-21T01:40:57;18.08;76.00
70830;SHT30;58451;51.550;7.208;2023-08-21T01:42:30;18.10;76.02
70830;SHT30;58451;51.550;7.208;2023-08-21T01:44:01;18.08;75.97
70830;SHT30;58451;51.550;7.208;2023-08-21T01:45:33;18.09;75.98
70830;SHT30;58451;51.550;7.208;2023-08-21T01:47:05;18.08;75.95
70830;SHT30;58451;51.550;7.208;2023-08-21T01:48:38;18.07;75.93
70830;SHT30;58451;51.550;7.208;2023-08-21T01:50:09;18.06;75.88
70830;SHT30;58451;51.550;7.208;2023-08-21T01:51:42;18.04;75.87
70830;SHT30;58451;51.550;7.208;2023-08-21T01:53:14;18.03;75.88
70830;SHT30;58451;51.550;7.208;2023-08-21T01:54:46;18.01;75.90
70830;SHT30;58451;51.550;7.208;2023-08-21T01:56:21;17.99;75.92
70830;SHT30;58451;51.550;7.208;2023-08-21T01:57:54;17.97;75.93
70830;SHT30;58451;51.550;7.208;2023-08-21T01:59:26;17.96;75.95
70830;SHT30;58451;51.550;7.208;2023-08-21T02:00:58;17.94;76.02
70830;SHT30;58451;51.550;7.208;2023-08-21T02:02:30;17.94;76.07
70830;SHT30;58451;51.550;7.208;2023-08-21T02:04:03;17.91;76.17
70830;SHT30;58451;51.550;7.208;2023-08-21T02:05:38;17.91;76.32
70830;SHT30;58451;51.550;7.208;2023-08-21T02:07:11;17.89;76.28
70830;SHT30;58451;51.550;7.208;2023-08-21T02:08:43;17.87;76.27
70830;SHT30;58451;51.550;7.208;2023-08-21T02:10:15;17.85;76.32
70830;SHT30;58451;51.550;7.208;2023-08-21T02:11:47;17.84;76.35
70830;SHT30;58451;51.550;7.208;2023-08-21T02:13:19;17.83;76.33
70830;SHT30;58451;51.550;7.208;2023-08-21T02:14:52;17.81;76.35
70830;SHT30;58451;51.550;7.208;2023-08-21T02:16:23;17.80;76.38
70830;SHT30;58451;51.550;7.208;2023-08-21T02:17:56;17.79;76.43
70830;SHT30;58451;51.550;7.208;2023-08-21T02:19:27;17.77;76.43
70830;SHT30;58451;51.550;7.208;2023-08-21T02:21:00;17.76;76.48
70830;SHT30;58451;51.550;7.208;2023-08-21T02:22:33;17.75;76.53
70830;SHT30;58451;51.550;7.208;2023-08-21T02:24:05;17.73;76.60
70830;SHT30;58451;51.550;7.208;2023-08-21T02:25:37;17.71;76.65
70830;SHT30;58451;51.550;7.208;2023-08-21T02:27:08;17.70;76.65
70830;SHT30;58451;51.550;7.208;2023-08-21T02:28:43;17.68;76.68
70830;SHT30;58451;51.550;7.208;2023-08-21T02:30:15;17.67;76.73
70830;SHT30;58451;51.550;7.208;2023-08-21T02:31:48;17.65;76.80
70830;SHT30;58451;51.550;7.208;2023-08-21T02:33:19;17.62;76.82
70830;SHT30;58451;51.550;7.208;2023-08-21T02:34:51;17.60;76.83
70830;SHT30;58451;51.550;7.208;2023-08-21T02:36:23;17.58;76.87
70830;SHT30;58451;51.550;7.208;2023-08-21T02:37:55;17.56;76.92
70830;SHT30;58451;51.550;7.208;2023-08-21T02:39:27;17.53;76.95
70830;SHT30;58451;51.550;7.208;2023-08-21T02:40:59;17.52;77.02
70830;SHT30;58451;51.550;7.208;2023-08-21T02:42:31;17.49;77.10
70830;SHT30;58451;51.550;7.208;2023-08-21T02:44:04;17.47;77.18
70830;SHT30;58451;51.550;7.208;2023-08-21T02:45:36;17.44;77.28
70830;SHT30;58451;51.550;7.208;2023-08-21T02:47:08;17.40;77.33
70830;SHT30;58451;51.550;7.208;2023-08-21T02:48:40;17.37;77.38
70830;SHT30;58451;51.550;7.208;2023-08-21T02:50:12;17.35;77.43
70830;SHT30;58451;51.550;7.208;2023-08-21T02:51:44;17.33;77.48
70830;SHT30;58451;51.550;7.208;2023-08-21T02:53:15;17.32;77.50
70830;SHT30;58451;51.550;7.208;2023-08-21T02:54:47;17.30;77.58
70830;SHT30;58451;51.550;7.208;2023-08-21T02:56:19;17.28;77.67
70830;SHT30;58451;51.550;7.208;2023-08-21T02:57:51;17.27;77.72
70830;SHT30;58451;51.550;7.208;2023-08-21T02:59:23;17.26;77.70
70830;SHT30;58451;51.550;7.208;2023-08-21T03:00:55;17.24;77.68
70830;SHT30;58451;51.550;7.208;2023-08-21T03:02:29;17.22;77.73
70830;SHT30;58451;51.550;7.208;2023-08-21T03:04:01;17.20;77.75
70830;SHT30;58451;51.550;7.208;2023-08-21T03:05:34;17.18;77.75
70830;SHT30;58451;51.550;7.208;2023-08-21T03:07:06;17.17;77.78
70830;SHT30;58451;51.550;7.208;2023-08-21T03:08:38;17.16;77.80
70830;SHT30;58451;51.550;7.208;2023-08-21T03:10:09;17.14;77.85
70830;SHT30;58451;51.550;7.208;2023-08-21T03:11:44;17.13;77.87
70830;SHT30;58451;51.550;7.208;2023-08-21T03:13:15;17.12;77.90
70830;SHT30;58451;51.550;7.208;2023-08-21T03:14:50;17.11;77.92
70830;SHT30;58451;51.550;7.208;2023-08-21T03:16:22;17.10;77.95
70830;SHT30;58451;51.550;7.208;2023-08-21T03:17:55;17.08;77.98
70830;SHT30;58451;51.550;7.208;2023-08-21T03:19:28;17.08;78.02
70830;SHT30;58451;51.550;7.208;2023-08-21T03:21:00;17.06;78.03
70830;SHT30;58451;51.550;7.208;2023-08-21T03:22:32;17.07;78.08
70830;SHT30;58451;51.550;7.208;2023-08-21T03:24:05;17.05;78.13
70830;SHT30;58451;51.550;7.208;2023-08-21T03:25:38;17.06;78.20
70830;SHT30;58451;51.550;7.208;2023-08-21T03:27:10;17.06;78.32
70830;SHT30;58451;51.550;7.208;2023-08-21T03:28:41;17.05;78.42
70830;SHT30;58451;51.550;7.208;2023-08-21T03:30:13;17.06;78.48
70830;SHT30;58451;51.550;7.208;2023-08-21T03:31:48;17.07;78.58
70830;SHT30;58451;51.550;7.208;2023-08-21T03:33:21;17.08;78.58
70830;SHT30;58451;51.550;7.208;2023-08-21T03:34:53;17.08;78.65
70830;SHT30;58451;51.550;7.208;2023-08-21T03:36:25;17.10;78.72
70830;SHT30;58451;51.550;7.208;2023-08-21T03:38:04;17.11;78.67
70830;SHT30;58451;51.550;7.208;2023-08-21T03:39:43;17.11;78.65
70830;SHT30;58451;51.550;7.208;2023-08-21T03:41:15;17.12;78.75
70830;SHT30;58451;51.550;7.208;2023-08-21T03:42:46;17.13;78.77
70830;SHT30;58451;51.550;7.208;2023-08-21T03:44:18;17.13;78.72
70830;SHT30;58451;51.550;7.208;2023-08-21T03:45:51;17.11;78.70
70830;SHT30;58451;51.550;7.208;2023-08-21T03:47:23;17.10;78.75
70830;SHT30;58451;51.550;7.208;2023-08-21T03:49:01;17.09;78.68
70830;SHT30;58451;51.550;7.208;2023-08-21T03:50:33;17.08;78.70
70830;SHT30;58451;51.550;7.208;2023-08-21T03:52:05;17.08;78.70
70830;SHT30;58451;51.550;7.208;2023-08-21T03:53:37;17.07;78.70
70830;SHT30;58451;51.550;7.208;2023-08-21T03:55:09;17.06;78.73
70830;SHT30;58451;51.550;7.208;2023-08-21T03:56:41;17.06;78.78
70830;SHT30;58451;51.550;7.208;2023-08-21T03:58:13;17.08;78.80
70830;SHT30;58451;51.550;7.208;2023-08-21T03:59:45;17.07;78.80
70830;SHT30;58451;51.550;7.208;2023-08-21T04:01:17;17.07;78.78
70830;SHT30;58451;51.550;7.208;2023-08-21T04:02:52;17.07;78.83
70830;SHT30;58451;51.550;7.208;2023-08-21T04:04:24;17.08;78.82
70830;SHT30;58451;51.550;7.208;2023-08-21T04:05:56;17.08;78.87
70830;SHT30;58451;51.550;7.208;2023-08-21T04:07:28;17.10;78.83
70830;SHT30;58451;51.550;7.208;2023-08-21T04:08:59;17.09;78.83
70830;SHT30;58451;51.550;7.208;2023-08-21T04:10:32;17.10;78.85
70830;SHT30;58451;51.550;7.208;2023-08-21T04:12:04;17.11;78.87
70830;SHT30;58451;51.550;7.208;2023-08-21T04:13:36;17.11;78.88
70830;SHT30;58451;51.550;7.208;2023-08-21T04:15:09;17.11;78.93
70830;SHT30;58451;51.550;7.208;2023-08-21T04:16:41;17.10;78.93
70830;SHT30;58451;51.550;7.208;2023-08-21T04:18:13;17.08;78.93
70830;SHT30;58451;51.550;7.208;2023-08-21T04:20:01;17.08;79.02
70830;SHT30;58451;51.550;7.208;2023-08-21T04:21:33;17.06;79.07
70830;SHT30;58451;51.550;7.208;2023-08-21T04:23:04;17.04;79.05
70830;SHT30;58451;51.550;7.208;2023-08-21T04:24:36;17.03;79.13
70830;SHT30;58451;51.550;7.208;2023-08-21T04:26:08;17.02;79.12
70830;SHT30;58451;51.550;7.208;2023-08-21T04:27:41;17.01;79.15
70830;SHT30;58451;51.550;7.208;2023-08-21T04:29:14;16.98;79.18
70830;SHT30;58451;51.550;7.208;2023-08-21T04:30:46;16.98;79.17
70830;SHT30;58451;51.550;7.208;2023-08-21T04:32:18;16.97;79.22
70830;SHT30;58451;51.550;7.208;2023-08-21T04:33:50;16.97;79.20
70830;SHT30;58451;51.550;7.208;2023-08-21T04:35:22;16.97;79.22
70830;SHT30;58451;51.550;7.208;2023-08-21T04:36:54;16.98;79.23
70830;SHT30;58451;51.550;7.208;2023-08-21T04:38:27;17.01;79.25
70830;SHT30;58451;51.550;7.208;2023-08-21T04:39:59;17.01;79.18
70830;SHT30;58451;51.550;7.208;2023-08-21T04:41:31;17.03;79.18
70830;SHT30;58451;51.550;7.208;2023-08-21T04:43:03;17.05;79.20
70830;SHT30;58451;51.550;7.208;2023-08-21T04:44:35;17.06;79.25
70830;SHT30;58451;51.550;7.208;2023-08-21T04:46:07;17.09;79.28
70830;SHT30;58451;51.550;7.208;2023-08-21T04:47:40;17.11;79.37
70830;SHT30;58451;51.550;7.208;2023-08-21T04:49:12;17.13;79.40
70830;SHT30;58451;51.550;7.208;2023-08-21T04:50:45;17.15;79.42
70830;SHT30;58451;51.550;7.208;2023-08-21T04:52:18;17.17;79.47
70830;SHT30;58451;51.550;7.208;2023-08-21T04:53:51;17.18;79.58
70830;SHT30;58451;51.550;7.208;2023-08-21T04:55:23;17.20;79.55
70830;SHT30;58451;51.550;7.208;2023-08-21T04:56:56;17.21;79.55
70830;SHT30;58451;51.550;7.208;2023-08-21T04:58:28;17.24;79.45
70830;SHT30;58451;51.550;7.208;2023-08-21T05:00:01;17.27;79.42
70830;SHT30;58451;51.550;7.208;2023-08-21T05:01:36;17.32;79.37
70830;SHT30;58451;51.550;7.208;2023-08-21T05:03:08;17.38;79.32
70830;SHT30;58451;51.550;7.208;2023-08-21T05:04:41;17.44;79.25
70830;SHT30;58451;51.550;7.208;2023-08-21T05:06:13;17.50;79.20
70830;SHT30;58451;51.550;7.208;2023-08-21T05:07:45;17.60;79.15
70830;SHT30;58451;51.550;7.208;2023-08-21T05:09:17;17.72;79.15
70830;SHT30;58451;51.550;7.208;2023-08-21T05:10:55;17.81;79.08
70830;SHT30;58451;51.550;7.208;2023-08-21T05:12:29;17.93;78.95
70830;SHT30;58451;51.550;7.208;2023-08-21T05:14:03;18.02;78.88
70830;SHT30;58451;51.550;7.208;2023-08-21T05:15:35;18.08;78.82
70830;SHT30;58451;51.550;7.208;2023-08-21T05:17:07;18.15;78.70
70830;SHT30;58451;51.550;7.208;2023-08-21T05:18:40;18.19;78.62
70830;SHT30;58451;51.550;7.208;2023-08-21T05:20:12;18.22;78.57
70830;SHT30;58451;51.550;7.208;2023-08-21T05:21:48;18.27;78.48
70830;SHT30;58451;51.550;7.208;2023-08-21T05:23:21;18.29;78.35
70830;SHT30;58451;51.550;7.208;2023-08-21T05:24:55;18.33;78.23
70830;SHT30;58451;51.550;7.208;2023-08-21T05:26:26;18.34;78.13
70830;SHT30;58451;51.550;7.208;2023-08-21T05:27:59;18.34;78.02
70830;SHT30;58451;51.550;7.208;2023-08-21T05:29:31;18.35;77.98
70830;SHT30;58451;51.550;7.208;2023-08-21T05:31:03;18.35;77.95
70830;SHT30;58451;51.550;7.208;2023-08-21T05:32:46;18.36;77.88
70830;SHT30;58451;51.550;7.208;2023-08-21T05:34:18;18.36;77.82
70830;SHT30;58451;51.550;7.208;2023-08-21T05:35:50;18.36;77.77
70830;SHT30;58451;51.550;7.208;2023-08-21T05:37:23;18.34;77.77
70830;SHT30;58451;51.550;7.208;2023-08-21T05:38:56;18.34;77.73
70830;SHT30;58451;51.550;7.208;2023-08-21T05:40:30;18.35;77.73
70830;SHT30;58451;51.550;7.208;2023-08-21T05:42:02;18.40;77.73
70830;SHT30;58451;51.550;7.208;2023-08-21T05:43:35;18.48;77.62
70830;SHT30;58451;51.550;7.208;2023-08-21T05:45:09;18.55;77.52
70830;SHT30;58451;51.550;7.208;2023-08-21T05:46:41;18.63;77.42
70830;SHT30;58451;51.550;7.208;2023-08-21T05:48:13;18.69;77.27
70830;SHT30;58451;51.550;7.208;2023-08-21T05:49:46;18.76;77.20
70830;SHT30;58451;51.550;7.208;2023-08-21T05:51:22;18.84;77.07
70830;SHT30;58451;51.550;7.208;2023-08-21T05:52:55;18.92;76.97
70830;SHT30;58451;51.550;7.208;2023-08-21T05:54:29;19.00;76.85
70830;SHT30;58451;51.550;7.208;2023-08-21T05:56:03;19.10;76.77
70830;SHT30;58451;51.550;7.208;2023-08-21T05:57:35;19.18;76.62
70830;SHT30;58451;51.550;7.208;2023-08-21T05:59:10;19.27;76.47
70830;SHT30;58451;51.550;7.208;2023-08-21T06:00:44;19.36;76.33
70830;SHT30;58451;51.550;7.208;2023-08-21T06:02:18;19.49;76.27
70830;SHT30;58451;51.550;7.208;2023-08-21T06:03:49;19.60;76.15
70830;SHT30;58451;51.550;7.208;2023-08-21T06:05:40;19.71;75.95
70830;SHT30;58451;51.550;7.208;2023-08-21T06:07:13;19.81;75.77
70830;SHT30;58451;51.550;7.208;2023-08-21T06:08:44;19.91;75.60
70830;SHT30;58451;51.550;7.208;2023-08-21T06:10:16;20.04;75.47
70830;SHT30;58451;51.550;7.208;2023-08-21T06:11:48;20.16;75.23
70830;SHT30;58451;51.550;7.208;2023-08-21T06:13:20;20.29;74.93
70830;SHT30;58451;51.550;7.208;2023-08-21T06:14:54;20.41;74.75
70830;SHT30;58451;51.550;7.208;2023-08-21T06:16:26;20.52;74.20
70830;SHT30;58451;51.550;7.208;2023-08-21T06:17:58;20.63;73.92
70830;SHT30;58451;51.550;7.208;2023-08-21T06:19:31;20.73;73.90
70830;SHT30;58451;51.550;7.208;2023-08-21T06:21:03;20.83;73.65
70830;SHT30;58451;51.550;7.208;2023-08-21T06:22:35;20.94;73.25
70830;SHT30;58451;51.550;7.208;2023-08-21T06:24:08;20.98;72.58
70830;SHT30;58451;51.550;7.208;2023-08-21T06:25:41;21.03;72.28
70830;SHT30;58451;51.550;7.208;2023-08-21T06:27:15;21.05;72.17
70830;SHT30;58451;51.550;7.208;2023-08-21T06:28:47;21.06;72.03
70830;SHT30;58451;51.550;7.208;2023-08-21T06:30:19;21.04;71.92
70830;SHT30;58451;51.550;7.208;2023-08-21T06:31:51;21.05;71.62
70830;SHT30;58451;51.550;7.208;2023-08-21T06:33:24;21.05;71.50
70830;SHT30;58451;51.550;7.208;2023-08-21T06:34:56;21.04;71.32
70830;SHT30;58451;51.550;7.208;2023-08-21T06:36:28;21.10;71.08
70830;SHT30;58451;51.550;7.208;2023-08-21T06:38:00;21.13;71.08
70830;SHT30;58451;51.550;7.208;2023-08-21T06:39:34;21.13;71.05
70830;SHT30;58451;51.550;7.208;2023-08-21T06:41:06;21.11;71.07
70830;SHT30;58451;51.550;7.208;2023-08-21T06:42:43;21.11;71.15
70830;SHT30;58451;51.550;7.208;2023-08-21T06:44:15;21.21;71.10
70830;SHT30;58451;51.550;7.208;2023-08-21T06:45:47;21.30;70.68
70830;SHT30;58451;51.550;7.208;2023-08-21T06:47:18;21.39;70.58
70830;SHT30;58451;51.550;7.208;2023-08-21T06:48:50;21.47;70.45
70830;SHT30;58451;51.550;7.208;2023-08-21T06:50:22;21.56;70.25
70830;SHT30;58451;51.550;7.208;2023-08-21T06:51:55;21.64;70.02
70830;SHT30;58451;51.550;7.208;2023-08-21T06:53:27;21.70;69.78
70830;SHT30;58451;51.550;7.208;2023-08-21T06:54:59;21.75;69.22
70830;SHT30;58451;51.550;7.208;2023-08-21T06:56:31;21.80;68.97
70830;SHT30;58451;51.550;7.208;2023-08-21T06:58:03;21.83;68.72
70830;SHT30;58451;51.550;7.208;2023-08-21T06:59:35;21.88;68.82
70830;SHT30;58451;51.550;7.208;2023-08-21T07:01:07;21.94;68.48
70830;SHT30;58451;51.550;7.208;2023-08-21T07:02:39;22.04;68.42
70830;SHT30;58451;51.550;7.208;2023-08-21T07:04:11;22.15;68.23
70830;SHT30;58451;51.550;7.208;2023-08-21T07:05:46;22.22;68.27
70830;SHT30;58451;51.550;7.208;2023-08-21T07:07:24;22.32;68.08
70830;SHT30;58451;51.550;7.208;2023-08-21T07:08:56;22.41;67.67
70830;SHT30;58451;51.550;7.208;2023-08-21T07:10:28;22.50;67.15
70830;SHT30;58451;51.550;7.208;2023-08-21T07:12:00;22.57;66.82
70830;SHT30;58451;51.550;7.208;2023-08-21T07:13:33;22.58;66.65
70830;SHT30;58451;51.550;7.208;2023-08-21T07:15:06;22.60;66.53
70830;SHT30;58451;51.550;7.208;2023-08-21T07:16:38;22.65;66.07
70830;SHT30;58451;51.550;7.208;2023-08-21T07:18:10;22.77;65.90
70830;SHT30;58451;51.550;7.208;2023-08-21T07:19:42;22.87;65.82
70830;SHT30;58451;51.550;7.208;2023-08-21T07:21:17;22.97;65.00
70830;SHT30;58451;51.550;7.208;2023-08-21T07:23:03;23.10;65.35
70830;SHT30;58451;51.550;7.208;2023-08-21T07:24:35;23.33;65.02
70830;SHT30;58451;51.550;7.208;2023-08-21T07:26:07;23.51;64.87
70830;SHT30;58451;51.550;7.208;2023-08-21T07:27:39;23.63;64.13
70830;SHT30;58451;51.550;7.208;2023-08-21T07:29:11;23.73;64.38
70830;SHT30;58451;51.550;7.208;2023-08-21T07:30:43;23.87;64.20
70830;SHT30;58451;51.550;7.208;2023-08-21T07:32:14;24.05;64.12
70830;SHT30;58451;51.550;7.208;2023-08-21T07:33:46;24.16;63.02
70830;SHT30;58451;51.550;7.208;2023-08-21T07:35:18;24.22;62.00
70830;SHT30;58451;51.550;7.208;2023-08-21T07:36:52;24.23;61.67
70830;SHT30;58451;51.550;7.208;2023-08-21T07:38:23;24.25;61.93
70830;SHT30;58451;51.550;7.208;2023-08-21T07:39:56;24.30;61.22
70830;SHT30;58451;51.550;7.208;2023-08-21T07:41:29;24.34;61.07
70830;SHT30;58451;51.550;7.208;2023-08-21T07:43:01;24.30;60.82
70830;SHT30;58451;51.550;7.208;2023-08-21T07:44:32;24.26;61.23
70830;SHT30;58451;51.550;7.208;2023-08-21T07:46:05;24.28;60.72
70830;SHT30;58451;51.550;7.208;2023-08-21T07:47:38;24.33;60.68
70830;SHT30;58451;51.550;7.208;2023-08-21T07:49:10;24.40;60.33
70830;SHT30;58451;51.550;7.208;2023-08-21T07:50:41;24.40;59.65
70830;SHT30;58451;51.550;7.208;2023-08-21T07:52:25;24.46;60.72
70830;SHT30;58451;51.550;7.208;2023-08-21T07:53:57;24.60;60.83
70830;SHT30;58451;51.550;7.208;2023-08-21T07:55:31;24.76;60.15
70830;SHT30;58451;51.550;7.208;2023-08-21T07:57:03;24.80;59.72
70830;SHT30;58451;51.550;7.208;2023-08-21T07:58:35;24.78;60.22
70830;SHT30;58451;51.550;7.208;2023-08-21T08:00:07;24.78;59.58
70830;SHT30;58451;51.550;7.208;2023-08-21T08:01:46;24.68;59.08
70830;SHT30;58451;51.550;7.208;2023-08-21T08:03:18;24.56;59.13
70830;SHT30;58451;51.550;7.208;2023-08-21T08:04:50;24.42;58.92
70830;SHT30;58451;51.550;7.208;2023-08-21T08:06:22;24.28;59.25
70830;SHT30;58451;51.550;7.208;2023-08-21T08:07:54;24.22;59.47
70830;SHT30;58451;51.550;7.208;2023-08-21T08:09:26;24.21;59.45
70830;SHT30;58451;51.550;7.208;2023-08-21T08:11:01;24.23;59.68
70830;SHT30;58451;51.550;7.208;2023-08-21T08:12:35;24.24;59.83
70830;SHT30;58451;51.550;7.208;2023-08-21T08:14:08;24.28;59.77
70830;SHT30;58451;51.550;7.208;2023-08-21T08:15:39;24.33;59.82
70830;SHT30;58451;51.550;7.208;2023-08-21T08:17:11;24.35;59.47
70830;SHT30;58451;51.550;7.208;2023-08-21T08:18:43;24.35;59.33
70830;SHT30;58451;51.550;7.208;2023-08-21T08:20:15;24.34;59.25
70830;SHT30;58451;51.550;7.208;2023-08-21T08:21:47;24.35;59.53
70830;SHT30;58451;51.550;7.208;2023-08-21T08:23:19;24.38;59.48
70830;SHT30;58451;51.550;7.208;2023-08-21T08:24:52;24.45;59.70
70830;SHT30;58451;51.550;7.208;2023-08-21T08:26:24;24.52;59.68
70830;SHT30;58451;51.550;7.208;2023-08-21T08:27:55;24.60;59.13
70830;SHT30;58451;51.550;7.208;2023-08-21T08:29:27;24.66;58.77
70830;SHT30;58451;51.550;7.208;2023-08-21T08:30:59;24.72;58.72
70830;SHT30;58451;51.550;7.208;2023-08-21T08:32:32;24.78;58.47
70830;SHT30;58451;51.550;7.208;2023-08-21T08:34:04;24.89;58.20
70830;SHT30;58451;51.550;7.208;2023-08-21T08:35:36;24.94;58.32
70830;SHT30;58451;51.550;7.208;2023-08-21T08:37:08;25.04;57.60
70830;SHT30;58451;51.550;7.208;2023-08-21T08:38:40;25.09;57.22
70830;SHT30;58451;51.550;7.208;2023-08-21T08:40:11;25.13;57.05
70830;SHT30;58451;51.550;7.208;2023-08-21T08:41:46;25.16;57.33
70830;SHT30;58451;51.550;7.208;2023-08-21T08:43:32;25.23;57.53
70830;SHT30;58451;51.550;7.208;2023-08-21T08:45:12;25.28;57.28
70830;SHT30;58451;51.550;7.208;2023-08-21T08:46:48;25.32;56.72
70830;SHT30;58451;51.550;7.208;2023-08-21T08:48:22;25.30;56.97
70830;SHT30;58451;51.550;7.208;2023-08-21T08:49:55;25.31;56.92
70830;SHT30;58451;51.550;7.208;2023-08-21T08:51:28;25.34;57.10
70830;SHT30;58451;51.550;7.208;2023-08-21T08:53:03;25.42;56.60
70830;SHT30;58451;51.550;7.208;2023-08-21T08:54:47;25.40;55.90
70830;SHT30;58451;51.550;7.208;2023-08-21T08:56:18;25.36;56.22
70830;SHT30;58451;51.550;7.208;2023-08-21T08:57:51;25.33;56.28
70830;SHT30;58451;51.550;7.208;2023-08-21T08:59:24;25.31;56.27
70830;SHT30;58451;51.550;7.208;2023-08-21T09:00:57;25.33;56.27
70830;SHT30;58451;51.550;7.208;2023-08-21T09:02:28;25.33;55.92
70830;SHT30;58451;51.550;7.208;2023-08-21T09:04:00;25.32;56.17
70830;SHT30;58451;51.550;7.208;2023-08-21T09:05:33;25.34;56.22
70830;SHT30;58451;51.550;7.208;2023-08-21T09:07:09;25.38;56.25
70830;SHT30;58451;51.550;7.208;2023-08-21T09:08:53;25.43;55.82
70830;SHT30;58451;51.550;7.208;2023-08-21T09:10:27;25.42;55.58
70830;SHT30;58451;51.550;7.208;2023-08-21T09:11:59;25.39;55.72
70830;SHT30;58451;51.550;7.208;2023-08-21T09:13:31;25.37;55.87
70830;SHT30;58451;51.550;7.208;2023-08-21T09:15:06;25.42;56.13
70830;SHT30;58451;51.550;7.208;2023-08-21T09:16:56;25.49;55.75
70830;SHT30;58451;51.550;7.208;2023-08-21T09:18:35;25.50;56.00
70830;SHT30;58451;51.550;7.208;2023-08-21T09:20:11;25.58;56.25
70830;SHT30;58451;51.550;7.208;2023-08-21T09:21:43;25.66;56.13
70830;SHT30;58451;51.550;7.208;2023-08-21T09:23:15;25.71;55.42
70830;SHT30;58451;51.550;7.208;2023-08-21T09:25:05;25.78;55.55
70830;SHT30;58451;51.550;7.208;2023-08-21T09:26:39;25.82;54.63
70830;SHT30;58451;51.550;7.208;2023-08-21T09:28:11;25.78;55.02
70830;SHT30;58451;51.550;7.208;2023-08-21T09:29:44;25.81;55.43
70830;SHT30;58451;51.550;7.208;2023-08-21T09:31:22;25.87;55.80
70830;SHT30;58451;51.550;7.208;2023-08-21T09:33:01;25.94;55.40
70830;SHT30;58451;51.550;7.208;2023-08-21T09:34:36;25.94;54.63
70830;SHT30;58451;51.550;7.208;2023-08-21T09:36:09;25.92;54.78
70830;SHT30;58451;51.550;7.208;2023-08-21T09:37:42;25.91;54.72
70830;SHT30;58451;51.550;7.208;2023-08-21T09:39:18;25.90;54.72
70830;SHT30;58451;51.550;7.208;2023-08-21T09:40:51;25.94;55.07
70830;SHT30;58451;51.550;7.208;2023-08-21T09:42:26;26.01;54.85
70830;SHT30;58451;51.550;7.208;2023-08-21T09:43:58;26.05;54.52
70830;SHT30;58451;51.550;7.208;2023-08-21T09:45:31;26.08;54.50
70830;SHT30;58451;51.550;7.208;2023-08-21T09:47:08;26.19;54.58
70830;SHT30;58451;51.550;7.208;2023-08-21T09:48:43;26.32;54.63
70830;SHT30;58451;51.550;7.208;2023-08-21T09:50:19;26.41;54.27
70830;SHT30;58451;51.550;7.208;2023-08-21T09:51:51;26.50;54.28
70830;SHT30;58451;51.550;7.208;2023-08-21T09:53:25;26.56;54.35
70830;SHT30;58451;51.550;7.208;2023-08-21T09:54:57;26.63;54.15
70830;SHT30;58451;51.550;7.208;2023-08-21T09:56:29;26.75;54.15